sensor_id;sensor_type;location;lat;lon;timestamp;pressure;altitude;pressure_sealevel;temperature;humidity
56038;BME280;41907;47.848;9.000;2023-01-26T00:00:26;96174.88;;;-0.63;100.00
56038;BME280;41907;47.848;9.000;2023-01-26T00:02:52;96164.19;;;-0.50;100.00
56038;BME280;41907;47.848;9.000;2023-01-26T00:05:17;96164.75;;;-0.59;100.00
56038;BME280;41907;47.848;9.000;2023-01-26T00:07:42;96162.91;;;-0.70;100.00
56038;BME280;41907;47.848;9.000;2023-01-26T00:10:10;96165.28;;;-0.81;100.00
56038;BME280;41907;47.848;9.000;2023-01-26T00:12:35;96160.97;;;-0.87;100.00
56038;BME280;41907;47.848;9.000;2023-01-26T00:15:01;96161.50;;;-0.96;100.00
56038;BME280;41907;47.848;9.000;2023-01-26T00:17:26;96166.06;;;-0.92;100.00
56038;BME280;41907;47.848;9.000;2023-01-26T00:19:53;96161.16;;;-1.00;100.00
56038;BME280;41907;47.848;9.000;2023-01-26T00:22:19;96153.88;;;-0.98;100.00
56038;BME280;41907;47.848;9.000;2023-01-26T00:24:45;96161.16;;;-1.00;100.00
56038;BME280;41907;47.848;9.000;2023-01-26T00:27:10;96162.63;;;-0.92;100.00
56038;BME280;41907;47.848;9.000;2023-01-26T00:29:36;96158.34;;;-0.87;100.00
56038;BME280;41907;47.848;9.000;2023-01-26T00:32:01;96155.28;;;-0.72;100.00
56038;BME280;41907;47.848;9.000;2023-01-26T00:34:26;96158.59;;;-0.65;100.00
56038;BME280;41907;47.848;9.000;2023-01-26T00:36:52;96150.06;;;-0.49;100.00
56038;BME280;41907;47.848;9.000;2023-01-26T00:39:17;96144.03;;;-0.49;100.00
56038;BME280;41907;47.848;9.000;2023-01-26T00:41:42;96134.34;;;-0.60;100.00
56038;BME280;41907;47.848;9.000;2023-01-26T00:44:27;96128.88;;;-0.59;100.00
56038;BME280;41907;47.848;9.000;2023-01-26T00:46:52;96134.59;;;-0.39;100.00
56038;BME280;41907;47.848;9.000;2023-01-26T00:49:17;96139.69;;;-0.44;100.00
56038;BME280;41907;47.848;9.000;2023-01-26T00:51:43;96137.19;;;-0.39;100.00
56038;BME280;41907;47.848;9.000;2023-01-26T00:54:08;96135.03;;;-0.30;100.00
56038;BME280;41907;47.848;9.000;2023-01-26T00:56:33;96144.72;;;-0.30;100.00
56038;BME280;41907;47.848;9.000;2023-01-26T00:58:59;96140.16;;;-0.23;100.00
56038;BME280;41907;47.848;9.000;2023-01-26T01:01:24;96132.97;;;-0.16;100.00
56038;BME280;41907;47.848;9.000;2023-01-26T01:03:49;96127.13;;;-0.07;100.00
56038;BME280;41907;47.848;9.000;2023-01-26T01:06:16;96127.25;;;-0.13;100.00
56038;BME280;41907;47.848;9.000;2023-01-26T01:08:41;96125.66;;;-0.14;100.00
56038;BME280;41907;47.848;9.000;2023-01-26T01:11:09;96131.38;;;-0.29;100.00
56038;BME280;41907;47.848;9.000;2023-01-26T01:13:35;96120.31;;;-0.54;100.00
56038;BME280;41907;47.848;9.000;2023-01-26T01:16:04;96115.56;;;-0.57;100.00
56038;BME280;41907;47.848;9.000;2023-01-26T01:18:29;96113.84;;;-0.63;100.00
56038;BME280;41907;47.848;9.000;2023-01-26T01:20:55;96122.84;;;-0.71;100.00
56038;BME280;41907;47.848;9.000;2023-01-26T01:23:20;96113.97;;;-0.58;100.00
56038;BME280;41907;47.848;9.000;2023-01-26T01:25:45;96118.72;;;-0.55;100.00
56038;BME280;41907;47.848;9.000;2023-01-26T01:28:11;96113.97;;;-0.58;100.00
56038;BME280;41907;47.848;9.000;2023-01-26T01:30:37;96112.59;;;-0.61;100.00
56038;BME280;41907;47.848;9.000;2023-01-26T01:33:02;96117.81;;;-0.61;100.00
56038;BME280;41907;47.848;9.000;2023-01-26T01:35:27;96122.38;;;-0.56;100.00
56038;BME280;41907;47.848;9.000;2023-01-26T01:37:53;96113.63;;;-0.50;100.00
56038;BME280;41907;47.848;9.000;2023-01-26T01:40:18;96111.91;;;-0.45;100.00
56038;BME280;41907;47.848;9.000;2023-01-26T01:42:47;96105.19;;;-0.41;100.00
56038;BME280;41907;47.848;9.000;2023-01-26T01:47:52;96104.50;;;-0.48;100.00
56038;BME280;41907;47.848;9.000;2023-01-26T01:50:20;96101.88;;;-0.36;100.00
56038;BME280;41907;47.848;9.000;2023-01-26T01:52:45;96099.00;;;-0.34;100.00
56038;BME280;41907;47.848;9.000;2023-01-26T01:55:13;96100.16;;;-0.42;100.00
56038;BME280;41907;47.848;9.000;2023-01-26T01:57:45;96095.38;;;-0.33;100.00
56038;BME280;41907;47.848;9.000;2023-01-26T02:00:18;96089.78;;;-0.25;100.00
56038;BME280;41907;47.848;9.000;2023-01-26T02:02:48;96096.16;;;-0.21;100.00
56038;BME280;41907;47.848;9.000;2023-01-26T02:05:39;96088.06;;;-0.20;100.00
56038;BME280;41907;47.848;9.000;2023-01-26T02:08:07;96091.81;;;-0.16;100.00
56038;BME280;41907;47.848;9.000;2023-01-26T02:10:34;96090.66;;;-0.08;100.00
56038;BME280;41907;47.848;9.000;2023-01-26T02:13:01;96092.38;;;-0.02;100.00
56038;BME280;41907;47.848;9.000;2023-01-26T02:15:28;96089.25;;;0.01;100.00
56038;BME280;41907;47.848;9.000;2023-01-26T02:18:02;96088.72;;;-0.01;100.00
56038;BME280;41907;47.848;9.000;2023-01-26T02:28:21;96079.72;;;-0.05;100.00
56038;BME280;41907;47.848;9.000;2023-01-26T02:30:47;96075.84;;;-0.03;100.00
56038;BME280;41907;47.848;9.000;2023-01-26T02:33:19;96081.16;;;0.03;100.00
56038;BME280;41907;47.848;9.000;2023-01-26T02:35:45;96081.88;;;-0.02;100.00
56038;BME280;41907;47.848;9.000;2023-01-26T02:38:10;96074.13;;;-0.09;100.00
56038;BME280;41907;47.848;9.000;2023-01-26T02:40:55;96064.59;;;-0.26;100.00
56038;BME280;41907;47.848;9.000;2023-01-26T02:43:24;96067.34;;;-0.21;100.00
56038;BME280;41907;47.848;9.000;2023-01-26T02:45:51;96063.78;;;-0.15;100.00
56038;BME280;41907;47.848;9.000;2023-01-26T02:48:16;96057.16;;;-0.18;100.00
56038;BME280;41907;47.848;9.000;2023-01-26T02:51:02;96062.66;;;-0.19;100.00
56038;BME280;41907;47.848;9.000;2023-01-26T02:53:28;96059.03;;;-0.30;100.00
56038;BME280;41907;47.848;9.000;2023-01-26T02:55:54;96051.41;;;-0.31;100.00
56038;BME280;41907;47.848;9.000;2023-01-26T02:58:19;96051.31;;;-0.48;100.00
56038;BME280;41907;47.848;9.000;2023-01-26T03:00:45;96049.81;;;-0.44;100.00
56038;BME280;41907;47.848;9.000;2023-01-26T03:03:16;96039.25;;;-0.72;100.00
56038;BME280;41907;47.848;9.000;2023-01-26T03:05:42;96053.63;;;-0.87;100.00
56038;BME280;41907;47.848;9.000;2023-01-26T03:08:08;96043.69;;;-0.73;100.00
56038;BME280;41907;47.848;9.000;2023-01-26T03:10:33;96048.84;;;-0.66;100.00
56038;BME280;41907;47.848;9.000;2023-01-26T03:12:59;96044.84;;;-0.69;100.00
56038;BME280;41907;47.848;9.000;2023-01-26T03:15:25;96029.81;;;-0.85;100.00
56038;BME280;41907;47.848;9.000;2023-01-26T03:18:14;96038.22;;;-1.06;100.00
56038;BME280;41907;47.848;9.000;2023-01-26T03:21:05;96032.09;;;-1.00;100.00
56038;BME280;41907;47.848;9.000;2023-01-26T03:23:49;96032.63;;;-1.22;100.00
56038;BME280;41907;47.848;9.000;2023-01-26T03:26:34;96030.91;;;-1.28;100.00
56038;BME280;41907;47.848;9.000;2023-01-26T03:29:18;96023.31;;;-1.18;100.00
56038;BME280;41907;47.848;9.000;2023-01-26T03:31:43;96028.53;;;-1.18;100.00
56038;BME280;41907;47.848;9.000;2023-01-26T03:34:09;96021.50;;;-1.05;100.00
56038;BME280;41907;47.848;9.000;2023-01-26T03:36:35;96020.59;;;-0.99;100.00
56038;BME280;41907;47.848;9.000;2023-01-26T03:39:02;96018.66;;;-1.04;100.00
56038;BME280;41907;47.848;9.000;2023-01-26T03:41:28;96010.91;;;-1.10;100.00
56038;BME280;41907;47.848;9.000;2023-01-26T03:44:11;96008.75;;;-1.02;100.00
56038;BME280;41907;47.848;9.000;2023-01-26T03:46:55;96001.56;;;-0.83;100.00
56038;BME280;41907;47.848;9.000;2023-01-26T03:49:39;96019.22;;;-0.67;100.00
56038;BME280;41907;47.848;9.000;2023-01-26T03:52:23;96009.06;;;-0.63;100.00
56038;BME280;41907;47.848;9.000;2023-01-26T03:55:07;96010.19;;;-0.48;100.00
56038;BME280;41907;47.848;9.000;2023-01-26T03:57:51;96007.22;;;-0.40;100.00
56038;BME280;41907;47.848;9.000;2023-01-26T04:00:17;96005.94;;;-0.37;100.00
56038;BME280;41907;47.848;9.000;2023-01-26T04:02:42;96004.78;;;-0.29;100.00
56038;BME280;41907;47.848;9.000;2023-01-26T04:05:26;96016.06;;;-0.29;100.00
56038;BME280;41907;47.848;9.000;2023-01-26T04:08:10;96004.44;;;-0.33;100.00
56038;BME280;41907;47.848;9.000;2023-01-26T04:10:44;96004.66;;;-0.23;100.00
56038;BME280;41907;47.848;9.000;2023-01-26T04:13:10;96006.25;;;-0.22;100.00
56038;BME280;41907;47.848;9.000;2023-01-26T04:15:54;96007.03;;;-0.10;100.00
56038;BME280;41907;47.848;9.000;2023-01-26T04:18:37;95995.16;;;-0.12;100.00
56038;BME280;41907;47.848;9.000;2023-01-26T04:21:21;95997.06;;;-0.08;100.00
56038;BME280;41907;47.848;9.000;2023-01-26T04:23:55;95991.59;;;-0.06;100.00
56038;BME280;41907;47.848;9.000;2023-01-26T04:26:22;95985.09;;;-0.04;100.00
56038;BME280;41907;47.848;9.000;2023-01-26T04:28:48;95987.16;;;-0.06;100.00
56038;BME280;41907;47.848;9.000;2023-01-26T04:31:13;95981.34;;;-0.08;100.00
56038;BME280;41907;47.848;9.000;2023-01-26T04:33:41;95982.94;;;-0.07;100.00
56038;BME280;41907;47.848;9.000;2023-01-26T04:36:07;95985.00;;;-0.09;100.00
56038;BME280;41907;47.848;9.000;2023-01-26T04:38:33;95980.22;;;-0.12;100.00
56038;BME280;41907;47.848;9.000;2023-01-26T04:40:58;95981.56;;;-0.09;100.00
56038;BME280;41907;47.848;9.000;2023-01-26T04:43:24;95975.88;;;-0.06;100.00
56038;BME280;41907;47.848;9.000;2023-01-26T04:46:01;95980.81;;;-0.10;100.00
56038;BME280;41907;47.848;9.000;2023-01-26T04:48:27;95963.81;;;-0.19;100.00
56038;BME280;41907;47.848;9.000;2023-01-26T04:50:54;95968.31;;;-0.19;100.00
56038;BME280;41907;47.848;9.000;2023-01-26T04:53:20;95965.69;;;-0.19;100.00
56038;BME280;41907;47.848;9.000;2023-01-26T04:55:45;95966.03;;;-0.27;100.00
56038;BME280;41907;47.848;9.000;2023-01-26T04:58:11;95956.84;;;-0.42;100.00
56038;BME280;41907;47.848;9.000;2023-01-26T05:00:36;95957.38;;;-0.28;100.00
56038;BME280;41907;47.848;9.000;2023-01-26T05:03:02;95950.97;;;-0.20;100.00
56038;BME280;41907;47.848;9.000;2023-01-26T05:05:27;95959.72;;;-0.15;100.00
56038;BME280;41907;47.848;9.000;2023-01-26T05:07:52;95956.06;;;-0.14;100.00
56038;BME280;41907;47.848;9.000;2023-01-26T05:10:18;95966.41;;;-0.07;100.00
56038;BME280;41907;47.848;9.000;2023-01-26T05:12:43;95961.16;;;-0.07;100.00
56038;BME280;41907;47.848;9.000;2023-01-26T05:15:09;95965.22;;;0.00;100.00
56038;BME280;41907;47.848;9.000;2023-01-26T05:17:34;95955.81;;;-0.01;100.00
56038;BME280;41907;47.848;9.000;2023-01-26T05:20:00;95957.38;;;0.00;100.00
56038;BME280;41907;47.848;9.000;2023-01-26T05:22:26;95952.44;;;0.04;100.00
56038;BME280;41907;47.848;9.000;2023-01-26T05:24:52;95950.63;;;0.05;100.00
56038;BME280;41907;47.848;9.000;2023-01-26T05:27:17;95955.41;;;0.08;100.00
56038;BME280;41907;47.848;9.000;2023-01-26T05:29:46;95954.69;;;0.12;100.00
56038;BME280;41907;47.848;9.000;2023-01-26T05:32:12;95952.88;;;0.13;100.00
56038;BME280;41907;47.848;9.000;2023-01-26T05:34:37;95955.63;;;0.06;100.00
56038;BME280;41907;47.848;9.000;2023-01-26T05:37:03;95958.41;;;-0.01;100.00
56038;BME280;41907;47.848;9.000;2023-01-26T05:39:28;95959.34;;;-0.07;100.00
56038;BME280;41907;47.848;9.000;2023-01-26T05:41:54;95958.09;;;-0.04;100.00
56038;BME280;41907;47.848;9.000;2023-01-26T05:44:22;95956.41;;;-0.10;100.00
56038;BME280;41907;47.848;9.000;2023-01-26T05:46:50;95960.38;;;-0.08;100.00
56038;BME280;41907;47.848;9.000;2023-01-26T05:49:15;95965.59;;;-0.08;100.00
56038;BME280;41907;47.848;9.000;2023-01-26T05:51:40;95961.88;;;-0.12;100.00
56038;BME280;41907;47.848;9.000;2023-01-26T05:54:06;95965.84;;;-0.09;100.00
56038;BME280;41907;47.848;9.000;2023-01-26T05:56:31;95960.75;;;-0.16;100.00
56038;BME280;41907;47.848;9.000;2023-01-26T05:58:56;95972.41;;;-0.23;100.00
56038;BME280;41907;47.848;9.000;2023-01-26T06:01:22;95974.47;;;-0.25;100.00
56038;BME280;41907;47.848;9.000;2023-01-26T06:03:47;95971.47;;;-0.17;100.00
56038;BME280;41907;47.848;9.000;2023-01-26T06:06:12;95971.38;;;-0.22;100.00
56038;BME280;41907;47.848;9.000;2023-01-26T06:08:38;95976.63;;;-0.22;100.00
56038;BME280;41907;47.848;9.000;2023-01-26T06:11:03;95975.81;;;-0.23;100.00
56038;BME280;41907;47.848;9.000;2023-01-26T06:13:28;95980.13;;;-0.17;100.00
56038;BME280;41907;47.848;9.000;2023-01-26T06:15:54;95984.94;;;-0.25;100.00
56038;BME280;41907;47.848;9.000;2023-01-26T06:18:19;95988.78;;;-0.56;100.00
56038;BME280;41907;47.848;9.000;2023-01-26T06:20:45;95991.44;;;-0.68;100.00
56038;BME280;41907;47.848;9.000;2023-01-26T06:23:10;95984.47;;;-0.74;100.00
56038;BME280;41907;47.848;9.000;2023-01-26T06:25:37;95983.81;;;-0.69;100.00
56038;BME280;41907;47.848;9.000;2023-01-26T06:28:06;95982.00;;;-0.81;100.00
56038;BME280;41907;47.848;9.000;2023-01-26T06:30:31;95987.56;;;-0.77;100.00
56038;BME280;41907;47.848;9.000;2023-01-26T06:32:58;95982.69;;;-0.85;100.00
56038;BME280;41907;47.848;9.000;2023-01-26T06:35:24;95984.03;;;-0.83;100.00
56038;BME280;41907;47.848;9.000;2023-01-26T06:37:51;95983.59;;;-0.91;100.00
56038;BME280;41907;47.848;9.000;2023-01-26T06:40:17;95982.34;;;-0.89;100.00
56038;BME280;41907;47.848;9.000;2023-01-26T06:42:49;95978.94;;;-0.89;100.00
56038;BME280;41907;47.848;9.000;2023-01-26T06:45:15;95988.47;;;-0.71;100.00
56038;BME280;41907;47.848;9.000;2023-01-26T06:47:47;95971.50;;;-0.81;100.00
56038;BME280;41907;47.848;9.000;2023-01-26T06:50:19;95983.38;;;-0.90;100.00
56038;BME280;41907;47.848;9.000;2023-01-26T06:52:54;95973.91;;;-0.79;100.00
56038;BME280;41907;47.848;9.000;2023-01-26T06:55:23;95972.75;;;-0.83;100.00
56038;BME280;41907;47.848;9.000;2023-01-26T06:57:52;95977.22;;;-0.95;100.00
56038;BME280;41907;47.848;9.000;2023-01-26T07:00:18;95976.00;;;-1.04;100.00
56038;BME280;41907;47.848;9.000;2023-01-26T07:02:43;95974.72;;;-1.02;100.00
56038;BME280;41907;47.848;9.000;2023-01-26T07:05:09;95980.63;;;-1.18;100.00
56038;BME280;41907;47.848;9.000;2023-01-26T07:07:34;95979.16;;;-1.26;100.00
56038;BME280;41907;47.848;9.000;2023-01-26T07:09:59;95976.78;;;-1.16;100.00
56038;BME280;41907;47.848;9.000;2023-01-26T07:12:25;95982.81;;;-1.27;100.00
56038;BME280;41907;47.848;9.000;2023-01-26T07:14:50;95980.31;;;-1.33;100.00
56038;BME280;41907;47.848;9.000;2023-01-26T07:17:16;95977.56;;;-1.38;100.00
56038;BME280;41907;47.848;9.000;2023-01-26T07:19:42;95983.38;;;-1.36;100.00
56038;BME280;41907;47.848;9.000;2023-01-26T07:22:07;95982.91;;;-1.33;100.00
56038;BME280;41907;47.848;9.000;2023-01-26T07:24:32;95981.44;;;-1.29;100.00
56038;BME280;41907;47.848;9.000;2023-01-26T07:26:58;95980.06;;;-1.32;100.00
56038;BME280;41907;47.848;9.000;2023-01-26T07:29:23;95984.84;;;-1.29;100.00
56038;BME280;41907;47.848;9.000;2023-01-26T07:31:49;95982.34;;;-1.35;100.00
56038;BME280;41907;47.848;9.000;2023-01-26T07:34:14;95987.00;;;-1.37;100.00
56038;BME280;41907;47.848;9.000;2023-01-26T07:36:40;95987.13;;;-1.32;100.00
56038;BME280;41907;47.848;9.000;2023-01-26T07:39:05;95980.06;;;-1.32;100.00
56038;BME280;41907;47.848;9.000;2023-01-26T07:41:31;95987.13;;;-1.21;100.00
56038;BME280;41907;47.848;9.000;2023-01-26T07:43:56;95988.03;;;-1.15;100.00
56038;BME280;41907;47.848;9.000;2023-01-26T07:46:22;95989.41;;;-1.24;100.00
56038;BME280;41907;47.848;9.000;2023-01-26T07:48:49;95991.66;;;-1.28;100.00
56038;BME280;41907;47.848;9.000;2023-01-26T07:51:14;95987.13;;;-1.21;100.00
56038;BME280;41907;47.848;9.000;2023-01-26T07:53:39;95991.56;;;-1.21;100.00
56038;BME280;41907;47.848;9.000;2023-01-26T07:56:12;95983.13;;;-1.12;100.00
56038;BME280;41907;47.848;9.000;2023-01-26T07:58:38;95990.09;;;-1.17;100.00
56038;BME280;41907;47.848;9.000;2023-01-26T08:01:09;95991.44;;;-1.26;100.00
56038;BME280;41907;47.848;9.000;2023-01-26T08:03:34;95987.69;;;-1.30;100.00
56038;BME280;41907;47.848;9.000;2023-01-26T08:06:00;95981.09;;;-1.33;100.00
56038;BME280;41907;47.848;9.000;2023-01-26T08:08:25;95980.06;;;-1.32;100.00
56038;BME280;41907;47.848;9.000;2023-01-26T08:10:51;95979.72;;;-1.35;100.00
56038;BME280;41907;47.848;9.000;2023-01-26T08:13:19;95981.75;;;-1.37;100.00
56038;BME280;41907;47.848;9.000;2023-01-26T08:15:44;95974.84;;;-1.43;100.00
56038;BME280;41907;47.848;9.000;2023-01-26T08:18:10;95986.31;;;-1.44;100.00
56038;BME280;41907;47.848;9.000;2023-01-26T08:20:35;95980.16;;;-1.38;100.00
56038;BME280;41907;47.848;9.000;2023-01-26T08:23:00;95976.88;;;-1.45;100.00
56038;BME280;41907;47.848;9.000;2023-01-26T08:25:26;95977.22;;;-1.42;100.00
56038;BME280;41907;47.848;9.000;2023-01-26T08:27:53;95981.19;;;-1.51;100.00
56038;BME280;41907;47.848;9.000;2023-01-26T08:30:18;95988.25;;;-1.52;100.00
56038;BME280;41907;47.848;9.000;2023-01-26T08:32:44;95980.72;;;-1.48;100.00
56038;BME280;41907;47.848;9.000;2023-01-26T08:35:09;95971.75;;;-1.52;100.00
56038;BME280;41907;47.848;9.000;2023-01-26T08:37:35;95976.06;;;-1.46;100.00
56038;BME280;41907;47.848;9.000;2023-01-26T08:40:00;95978.94;;;-1.36;100.00
56038;BME280;41907;47.848;9.000;2023-01-26T08:42:25;95975.97;;;-1.28;100.00
56038;BME280;41907;47.848;9.000;2023-01-26T08:44:51;95976.22;;;-1.18;100.00
56038;BME280;41907;47.848;9.000;2023-01-26T08:47:16;95978.81;;;-1.18;100.00
56038;BME280;41907;47.848;9.000;2023-01-26T08:49:42;95975.41;;;-1.18;100.00
56038;BME280;41907;47.848;9.000;2023-01-26T08:52:07;95979.75;;;-1.24;100.00
56038;BME280;41907;47.848;9.000;2023-01-26T08:54:33;95969.72;;;-1.27;100.00
56038;BME280;41907;47.848;9.000;2023-01-26T08:56:58;95972.34;;;-1.15;100.00
56038;BME280;41907;47.848;9.000;2023-01-26T08:59:23;95963.91;;;-1.17;100.00
56038;BME280;41907;47.848;9.000;2023-01-26T09:01:48;95970.97;;;-1.18;100.00
56038;BME280;41907;47.848;9.000;2023-01-26T09:04:14;95960.72;;;-1.19;100.00
56038;BME280;41907;47.848;9.000;2023-01-26T09:06:39;95954.25;;;-1.05;100.00
56038;BME280;41907;47.848;9.000;2023-01-26T09:09:05;95970.72;;;-0.93;100.00
56038;BME280;41907;47.848;9.000;2023-01-26T09:11:30;95958.34;;;-0.86;100.00
56038;BME280;41907;47.848;9.000;2023-01-26T09:13:55;95953.97;;;-0.80;100.00
56038;BME280;41907;47.848;9.000;2023-01-26T09:16:22;95959.88;;;-0.61;100.00
56038;BME280;41907;47.848;9.000;2023-01-26T09:18:51;95968.28;;;-0.59;100.00
56038;BME280;41907;47.848;9.000;2023-01-26T09:21:18;95962.41;;;-0.78;100.00
56038;BME280;41907;47.848;9.000;2023-01-26T09:23:43;95965.50;;;-0.93;100.00
56038;BME280;41907;47.848;9.000;2023-01-26T09:26:09;95964.59;;;-0.87;100.00
56038;BME280;41907;47.848;9.000;2023-01-26T09:28:35;95964.44;;;-0.68;100.00
56038;BME280;41907;47.848;9.000;2023-01-26T09:31:04;95965.63;;;-0.88;100.00
56038;BME280;41907;47.848;9.000;2023-01-26T09:33:30;95958.78;;;-0.89;100.00
56038;BME280;41907;47.848;9.000;2023-01-26T09:35:55;95955.09;;;-0.64;100.00
56038;BME280;41907;47.848;9.000;2023-01-26T09:38:20;95956.38;;;-0.67;100.00
56038;BME280;41907;47.848;9.000;2023-01-26T09:43:46;95959.88;;;-0.73;100.00
56038;BME280;41907;47.848;9.000;2023-01-26T09:46:24;95973.41;;;-0.64;100.00
56038;BME280;41907;47.848;9.000;2023-01-26T09:49:13;95959.41;;;-0.58;100.00
56038;BME280;41907;47.848;9.000;2023-01-26T09:52:19;95955.19;;;-0.48;100.00
56038;BME280;41907;47.848;9.000;2023-01-26T09:54:51;95962.66;;;-0.40;100.00
56038;BME280;41907;47.848;9.000;2023-01-26T09:57:37;95958.94;;;-0.55;100.00
56038;BME280;41907;47.848;9.000;2023-01-26T10:02:54;95966.47;;;-0.59;100.00
56038;BME280;41907;47.848;9.000;2023-01-26T10:05:31;95970.78;;;-0.53;100.00
56038;BME280;41907;47.848;9.000;2023-01-26T10:08:01;95966.41;;;-0.35;100.00
56038;BME280;41907;47.848;9.000;2023-01-26T10:10:31;95965.09;;;-0.21;100.00
56038;BME280;41907;47.848;9.000;2023-01-26T10:12:59;95958.91;;;-0.15;100.00
56038;BME280;41907;47.848;9.000;2023-01-26T10:15:30;95954.72;;;-0.16;100.00
56038;BME280;41907;47.848;9.000;2023-01-26T10:17:59;95953.88;;;-0.05;100.00
56038;BME280;41907;47.848;9.000;2023-01-26T10:20:32;95952.66;;;-0.14;100.00
56038;BME280;41907;47.848;9.000;2023-01-26T10:23:05;95958.53;;;-0.35;100.00
56038;BME280;41907;47.848;9.000;2023-01-26T10:25:39;95956.25;;;-0.32;100.00
56038;BME280;41907;47.848;9.000;2023-01-26T10:30:44;95950.06;;;-0.26;100.00
56038;BME280;41907;47.848;9.000;2023-01-26T10:33:19;95949.66;;;-0.34;100.00
56038;BME280;41907;47.848;9.000;2023-01-26T10:35:49;95954.97;;;-0.58;100.00
56038;BME280;41907;47.848;9.000;2023-01-26T10:44:09;95940.53;;;-0.84;100.00
56038;BME280;41907;47.848;9.000;2023-01-26T10:46:44;95945.88;;;-0.67;100.00
56038;BME280;41907;47.848;9.000;2023-01-26T10:51:46;95946.13;;;-0.28;100.00
56038;BME280;41907;47.848;9.000;2023-01-26T10:54:29;95938.00;;;-0.27;100.00
56038;BME280;41907;47.848;9.000;2023-01-26T10:57:04;95940.22;;;-0.19;100.00
56038;BME280;41907;47.848;9.000;2023-01-26T10:59:57;95939.53;;;-0.14;100.00
56038;BME280;41907;47.848;9.000;2023-01-26T11:02:25;95947.97;;;-0.12;100.00
56038;BME280;41907;47.848;9.000;2023-01-26T11:07:33;95943.38;;;-0.05;100.00
56038;BME280;41907;47.848;9.000;2023-01-26T11:10:38;95935.91;;;-0.13;100.00
56038;BME280;41907;47.848;9.000;2023-01-26T11:13:28;95936.75;;;-0.24;100.00
56038;BME280;41907;47.848;9.000;2023-01-26T11:18:27;95936.84;;;-0.48;100.00
56038;BME280;41907;47.848;9.000;2023-01-26T11:21:43;95933.31;;;-0.53;100.00
56038;BME280;41907;47.848;9.000;2023-01-26T11:31:54;95941.03;;;-0.47;100.00
56038;BME280;41907;47.848;9.000;2023-01-26T11:39:42;95926.44;;;-0.43;100.00
56038;BME280;41907;47.848;9.000;2023-01-26T11:47:51;95931.06;;;-0.33;100.00
56038;BME280;41907;47.848;9.000;2023-01-26T11:50:25;95920.22;;;-0.25;100.00
56038;BME280;41907;47.848;9.000;2023-01-26T12:00:51;95911.66;;;-0.49;100.00
56038;BME280;41907;47.848;9.000;2023-01-26T12:03:25;95906.84;;;-0.40;100.00
56038;BME280;41907;47.848;9.000;2023-01-26T12:05:57;95895.19;;;-0.32;100.00
56038;BME280;41907;47.848;9.000;2023-01-26T12:08:32;95906.81;;;-0.28;100.00
56038;BME280;41907;47.848;9.000;2023-01-26T12:13:54;95897.69;;;-0.38;100.00
56038;BME280;41907;47.848;9.000;2023-01-26T12:22:09;95884.09;;;-0.80;100.00
56038;BME280;41907;47.848;9.000;2023-01-26T12:24:40;95888.66;;;-0.87;100.00
56038;BME280;41907;47.848;9.000;2023-01-26T12:27:15;95886.28;;;-0.88;100.00
56038;BME280;41907;47.848;9.000;2023-01-26T12:29:53;95883.38;;;-0.75;100.00
56038;BME280;41907;47.848;9.000;2023-01-26T12:32:23;95883.31;;;-0.92;100.00
56038;BME280;41907;47.848;9.000;2023-01-26T12:34:49;95887.28;;;-0.89;100.00
56038;BME280;41907;47.848;9.000;2023-01-26T12:37:43;95885.69;;;-0.79;100.00
56038;BME280;41907;47.848;9.000;2023-01-26T12:40:15;95893.78;;;-0.52;100.00
56038;BME280;41907;47.848;9.000;2023-01-26T12:45:30;95887.31;;;-0.61;100.00
56038;BME280;41907;47.848;9.000;2023-01-26T12:51:03;95870.72;;;-0.66;100.00
56038;BME280;41907;47.848;9.000;2023-01-26T12:53:53;95875.09;;;-0.84;100.00
56038;BME280;41907;47.848;9.000;2023-01-26T12:56:24;95871.97;;;-0.69;100.00
56038;BME280;41907;47.848;9.000;2023-01-26T12:58:54;95870.25;;;-0.63;100.00
56038;BME280;41907;47.848;9.000;2023-01-26T13:01:23;95861.63;;;-0.47;100.00
56038;BME280;41907;47.848;9.000;2023-01-26T13:04:04;95856.78;;;-0.55;100.00
56038;BME280;41907;47.848;9.000;2023-01-26T13:06:32;95867.13;;;-0.49;100.00
56038;BME280;41907;47.848;9.000;2023-01-26T13:11:49;95851.34;;;-0.65;100.00
56038;BME280;41907;47.848;9.000;2023-01-26T13:14:37;95851.41;;;-0.77;100.00
56038;BME280;41907;47.848;9.000;2023-01-26T13:35:34;95858.16;;;-0.93;100.00
56038;BME280;41907;47.848;9.000;2023-01-26T13:38:10;95854.72;;;-0.82;100.00
56038;BME280;41907;47.848;9.000;2023-01-26T13:40:46;95854.91;;;-0.71;100.00
56038;BME280;41907;47.848;9.000;2023-01-26T13:51:32;95852.25;;;-0.60;100.00
56038;BME280;41907;47.848;9.000;2023-01-26T13:54:13;95857.50;;;-0.60;100.00
56038;BME280;41907;47.848;9.000;2023-01-26T13:57:03;95852.22;;;-0.48;100.00
56038;BME280;41907;47.848;9.000;2023-01-26T13:59:28;95851.03;;;-0.41;100.00
56038;BME280;41907;47.848;9.000;2023-01-26T14:01:55;95861.50;;;-0.41;100.00
56038;BME280;41907;47.848;9.000;2023-01-26T14:04:31;95852.50;;;-0.45;100.00
56038;BME280;41907;47.848;9.000;2023-01-26T14:07:11;95849.44;;;-0.42;100.00
56038;BME280;41907;47.848;9.000;2023-01-26T14:09:45;95856.66;;;-0.49;100.00
56038;BME280;41907;47.848;9.000;2023-01-26T14:12:22;95858.78;;;-0.46;100.00
56038;BME280;41907;47.848;9.000;2023-01-26T14:14:51;95859.78;;;-0.63;100.00
56038;BME280;41907;47.848;9.000;2023-01-26T14:17:27;95863.78;;;-0.72;100.00
56038;BME280;41907;47.848;9.000;2023-01-26T14:19:53;95860.19;;;-0.55;100.00
56038;BME280;41907;47.848;9.000;2023-01-26T14:22:19;95857.19;;;-0.47;100.00
56038;BME280;41907;47.848;9.000;2023-01-26T14:24:49;95855.09;;;-0.33;100.00
56038;BME280;41907;47.848;9.000;2023-01-26T14:27:37;95860.47;;;-0.40;100.00
56038;BME280;41907;47.848;9.000;2023-01-26T14:30:27;95862.78;;;-0.26;100.00
56038;BME280;41907;47.848;9.000;2023-01-26T14:33:01;95863.59;;;-0.09;100.00
56038;BME280;41907;47.848;9.000;2023-01-26T14:35:27;95857.88;;;-0.23;100.00
56038;BME280;41907;47.848;9.000;2023-01-26T14:38:05;95870.56;;;-0.31;100.00
56038;BME280;41907;47.848;9.000;2023-01-26T14:40:45;95864.13;;;-0.41;100.00
56038;BME280;41907;47.848;9.000;2023-01-26T14:43:12;95864.81;;;-0.45;100.00
56038;BME280;41907;47.848;9.000;2023-01-26T14:45:42;95858.31;;;-0.43;100.00